createdAt,value
2022-11-24T00:01:06.116Z,15.80
2022-11-24T00:03:56.507Z,13.30
2022-11-24T00:06:44.816Z,13.47
2022-11-24T00:09:33.441Z,15.57
2022-11-24T00:12:21.722Z,17.03
2022-11-24T00:15:10.768Z,14.77
2022-11-24T00:18:00.485Z,11.57
2022-11-24T00:20:53.341Z,12.43
2022-11-24T00:23:41.826Z,11.07
2022-11-24T00:26:32.032Z,15.57
2022-11-24T00:29:21.787Z,12.93
2022-11-24T00:32:10.116Z,10.63
2022-11-24T00:34:59.758Z,12.27
2022-11-24T00:37:48.134Z,7.93
2022-11-24T00:40:37.720Z,10.60
2022-11-24T00:43:26.002Z,9.93
2022-11-24T00:46:14.836Z,15.57
2022-11-24T00:49:03.361Z,9.43
2022-11-24T00:51:53.071Z,17.70
2022-11-24T00:54:41.344Z,12.07
2022-11-24T00:57:29.602Z,13.47
2022-11-24T01:00:19.096Z,13.77
2022-11-24T01:03:07.662Z,15.23
2022-11-24T01:05:55.944Z,9.40
2022-11-24T01:08:46.453Z,9.10
2022-11-24T01:11:50.734Z,13.47
2022-11-24T01:14:39.283Z,13.77
2022-11-24T01:17:28.241Z,15.90
2022-11-24T01:20:17.219Z,14.40
2022-11-24T01:23:05.497Z,14.87
2022-11-24T01:25:55.138Z,12.43
2022-11-24T01:28:47.209Z,12.83
2022-11-24T01:31:37.030Z,11.13
2022-11-24T01:34:25.541Z,13.50
2022-11-24T01:37:14.434Z,9.87
2022-11-24T01:40:02.941Z,10.83
2022-11-24T01:42:54.114Z,12.13
2022-11-24T01:45:42.767Z,12.67
2022-11-24T01:48:34.425Z,12.00
2022-11-24T01:51:26.809Z,12.73
2022-11-24T01:54:19.853Z,12.97
2022-11-24T01:57:14.459Z,10.77
2022-11-24T02:00:08.539Z,11.67
2022-11-24T02:02:58.843Z,12.47
2022-11-24T02:05:52.308Z,14.53
2022-11-24T02:08:46.146Z,11.10
2022-11-24T02:11:38.317Z,9.53
2022-11-24T02:14:27.831Z,11.20
2022-11-24T02:17:17.652Z,10.93
2022-11-24T02:20:09.497Z,11.03
2022-11-24T02:23:04.985Z,12.70
2022-11-24T02:26:03.206Z,9.80
2022-11-24T02:28:53.753Z,10.20
2022-11-24T02:31:46.439Z,9.63
2022-11-24T02:34:35.355Z,10.77
2022-11-24T02:37:23.861Z,8.43
2022-11-24T02:40:15.835Z,10.57
2022-11-24T02:43:07.138Z,11.63
2022-11-24T02:45:56.854Z,9.37
2022-11-24T02:48:45.218Z,6.03
2022-11-24T02:51:34.594Z,6.30
2022-11-24T02:54:22.962Z,9.67
2022-11-24T02:57:11.790Z,8.07
2022-11-24T03:00:00.125Z,6.70
2022-11-24T03:02:49.919Z,7.57
2022-11-24T03:05:38.357Z,7.13
2022-11-24T03:08:26.691Z,6.37
2022-11-24T03:11:14.922Z,8.13
2022-11-24T03:14:03.489Z,6.90
2022-11-24T03:16:51.793Z,9.30
2022-11-24T03:19:41.567Z,7.33
2022-11-24T03:22:29.865Z,7.03
2022-11-24T03:25:18.558Z,7.47
2022-11-24T03:28:06.936Z,5.60
2022-11-24T03:30:55.370Z,6.17
2022-11-24T03:33:44.008Z,8.17
2022-11-24T03:36:33.625Z,5.87
2022-11-24T03:39:21.898Z,7.23
2022-11-24T03:42:10.178Z,7.83
2022-11-24T03:45:01.647Z,7.23
2022-11-24T03:48:00.623Z,8.83
2022-11-24T03:50:55.465Z,8.30
2022-11-24T03:53:45.866Z,6.07
2022-11-24T03:56:34.231Z,8.07
2022-11-24T03:59:22.484Z,8.03
2022-11-24T04:02:10.928Z,8.10
2022-11-24T04:05:00.324Z,5.17
2022-11-24T04:07:48.759Z,9.13
2022-11-24T04:10:40.131Z,4.77
2022-11-24T04:13:28.343Z,4.90
2022-11-24T04:16:16.711Z,7.73
2022-11-24T04:19:05.384Z,4.97
2022-11-24T04:21:53.733Z,4.73
2022-11-24T04:24:41.999Z,5.87
2022-11-24T04:27:31.710Z,6.30
2022-11-24T04:30:20.849Z,3.20
2022-11-24T04:33:09.089Z,6.83
2022-11-24T04:35:57.449Z,5.20
2022-11-24T04:39:23.159Z,9.93
2022-11-24T04:41:54.148Z,5.13
2022-11-24T04:44:43.857Z,4.87
2022-11-24T04:47:32.141Z,4.67
2022-11-24T04:50:20.860Z,6.27
2022-11-24T04:53:10.149Z,7.20
2022-11-24T04:55:58.549Z,7.33
2022-11-24T04:58:49.341Z,6.53
2022-11-24T05:01:39.090Z,6.00
2022-11-24T05:04:27.479Z,6.43
2022-11-24T05:07:18.789Z,6.37
2022-11-24T05:10:25.992Z,4.43
2022-11-24T05:13:15.053Z,6.83
2022-11-24T05:16:03.385Z,7.80
2022-11-24T05:18:53.090Z,4.10
2022-11-24T05:21:42.128Z,5.27
2022-11-24T05:24:30.656Z,7.17
2022-11-24T05:27:18.960Z,6.83
2022-11-24T05:30:08.849Z,8.87
2022-11-24T05:32:57.375Z,7.43
2022-11-24T05:35:47.860Z,6.90
2022-11-24T05:38:36.836Z,4.07
2022-11-24T05:41:25.116Z,4.07
2022-11-24T05:44:13.444Z,7.17
2022-11-24T05:47:01.780Z,6.60
2022-11-24T05:49:50.069Z,9.93
2022-11-24T05:52:40.210Z,7.67
2022-11-24T05:55:28.479Z,5.67
2022-11-24T05:58:16.687Z,8.80
2022-11-24T06:01:07.390Z,6.03
2022-11-24T06:03:55.658Z,5.50
2022-11-24T06:06:43.942Z,7.97
2022-11-24T06:09:33.692Z,4.57
2022-11-24T06:12:03.705Z,4.97
2022-11-24T06:14:31.786Z,6.07
2022-11-24T06:16:59.976Z,6.37
2022-11-24T06:19:27.964Z,5.63
2022-11-24T06:21:56.091Z,5.20
2022-11-24T06:24:24.212Z,3.90
2022-11-24T06:26:53.844Z,5.20
2022-11-24T06:29:21.744Z,5.57
2022-11-24T06:31:50.191Z,5.43
2022-11-24T06:34:18.181Z,7.73
2022-11-24T06:36:46.110Z,6.73
2022-11-24T06:39:14.064Z,7.90
2022-11-24T06:41:42.012Z,8.53
2022-11-24T06:44:11.504Z,9.07
2022-11-24T06:46:39.753Z,4.63
2022-11-24T06:49:10.526Z,6.43
2022-11-24T06:51:58.782Z,7.07
2022-11-24T06:54:27.118Z,6.53
2022-11-24T06:56:58.375Z,4.60
2022-11-24T06:59:27.805Z,6.03
2022-11-24T07:01:55.846Z,3.77
2022-11-24T07:04:24.012Z,7.30
2022-11-24T07:06:51.969Z,5.30
2022-11-24T07:09:38.534Z,7.63
2022-11-24T07:12:08.288Z,3.57
2022-11-24T07:14:37.806Z,5.33
2022-11-24T07:17:05.902Z,4.50
2022-11-24T07:19:33.919Z,5.70
2022-11-24T07:22:01.913Z,5.47
2022-11-24T07:24:29.817Z,5.47
2022-11-24T07:26:57.729Z,5.27
2022-11-24T07:29:25.774Z,5.30
2022-11-24T07:31:55.198Z,4.73
2022-11-24T07:34:23.277Z,5.43
2022-11-24T07:36:51.365Z,4.30
2022-11-24T07:39:19.274Z,7.60
2022-11-24T07:41:47.221Z,5.00
2022-11-24T07:44:15.697Z,6.23
2022-11-24T07:46:43.630Z,6.57
2022-11-24T07:49:12.892Z,7.57
2022-11-24T07:51:48.227Z,7.50
2022-11-24T07:54:16.123Z,7.67
2022-11-24T07:56:45.128Z,5.80
2022-11-24T07:59:33.419Z,5.47
2022-11-24T08:02:14.331Z,6.17
2022-11-24T08:04:43.660Z,8.20
2022-11-24T08:07:11.574Z,6.30
2022-11-24T08:09:41.362Z,6.50
2022-11-24T08:12:09.302Z,4.53
2022-11-24T08:14:55.730Z,3.90
2022-11-24T08:17:43.904Z,6.30
2022-11-24T08:20:14.168Z,7.93
2022-11-24T08:22:42.529Z,7.23
2022-11-24T08:25:11.030Z,8.40
2022-11-24T08:27:40.229Z,5.67
2022-11-24T08:30:09.657Z,7.90
2022-11-24T08:32:56.383Z,6.93
2022-11-24T08:35:46.111Z,4.73
2022-11-24T08:38:34.338Z,5.53
2022-11-24T08:41:22.604Z,5.13
2022-11-24T08:44:11.290Z,5.03
2022-11-24T08:46:59.525Z,5.23
2022-11-24T08:49:47.764Z,6.20
2022-11-24T08:52:17.926Z,6.30
2022-11-24T08:54:45.949Z,7.70
2022-11-24T08:57:18.716Z,7.27
2022-11-24T08:59:49.761Z,6.57
2022-11-24T09:02:18.165Z,4.40
2022-11-24T09:04:48.512Z,6.47
2022-11-24T09:07:20.782Z,7.17
2022-11-24T09:10:08.271Z,4.60
2022-11-24T09:12:36.225Z,7.13
2022-11-24T09:15:04.202Z,6.53
2022-11-24T09:17:32.899Z,4.60
2022-11-24T09:20:00.807Z,6.97
2022-11-24T09:22:31.459Z,7.47
2022-11-24T09:24:59.451Z,5.20
2022-11-24T09:27:27.986Z,6.33
2022-11-24T09:29:55.968Z,6.93
2022-11-24T09:32:24.361Z,4.63
2022-11-24T09:34:52.692Z,8.33
2022-11-24T09:37:20.730Z,7.50
2022-11-24T09:39:51.365Z,6.37
2022-11-24T09:42:31.552Z,5.93
2022-11-24T09:45:35.396Z,4.57
2022-11-24T09:48:13.632Z,5.70
2022-11-24T09:50:41.728Z,5.97
2022-11-24T09:53:17.296Z,6.10
2022-11-24T09:55:50.696Z,6.53
2022-11-24T09:58:32.403Z,8.60
2022-11-24T10:01:00.850Z,7.53
2022-11-24T10:03:34.016Z,7.33
2022-11-24T10:06:06.449Z,8.23
2022-11-24T10:08:49.685Z,9.13
2022-11-24T10:11:31.040Z,7.13
2022-11-24T10:14:26.299Z,8.47
2022-11-24T10:16:58.700Z,7.17
2022-11-24T10:19:40.256Z,8.43
2022-11-24T10:22:30.809Z,4.53
2022-11-24T10:25:22.363Z,6.10
2022-11-24T10:28:00.184Z,7.80
2022-11-24T10:30:28.789Z,7.07
2022-11-24T10:32:59.747Z,8.87
2022-11-24T10:35:32.382Z,8.17
2022-11-24T10:38:08.766Z,7.17
2022-11-24T10:40:57.728Z,6.53
2022-11-24T10:43:29.462Z,9.50
2022-11-24T10:46:01.988Z,8.20
2022-11-24T10:48:38.421Z,8.70
2022-11-24T10:51:34.134Z,7.07
2022-11-24T10:54:08.021Z,5.43
2022-11-24T10:56:40.876Z,6.27
2022-11-24T10:59:34.007Z,6.90
2022-11-24T11:02:02.673Z,7.40
2022-11-24T11:04:33.673Z,8.50
2022-11-24T11:07:17.557Z,6.97
2022-11-24T11:09:45.583Z,7.03
2022-11-24T11:12:42.909Z,7.67
2022-11-24T11:15:32.208Z,6.90
2022-11-24T11:18:01.651Z,7.77
2022-11-24T11:20:31.351Z,6.63
2022-11-24T11:23:03.328Z,4.67
2022-11-24T11:25:34.323Z,6.60
2022-11-24T11:28:27.798Z,7.37
2022-11-24T11:31:20.530Z,6.53
2022-11-24T11:34:08.259Z,7.83
2022-11-24T11:36:43.619Z,6.90
2022-11-24T11:39:24.164Z,6.57
2022-11-24T11:41:56.825Z,5.17
2022-11-24T11:44:35.826Z,6.67
2022-11-24T11:47:15.545Z,6.87
2022-11-24T11:49:43.575Z,5.83
2022-11-24T11:52:37.673Z,7.30
2022-11-24T11:55:33.060Z,8.00
2022-11-24T11:58:16.089Z,7.60
2022-11-24T12:00:49.812Z,5.87
2022-11-24T12:03:55.105Z,5.47
2022-11-24T12:06:38.350Z,4.43
2022-11-24T12:09:20.736Z,5.53
2022-11-24T12:12:04.034Z,5.70
2022-11-24T12:14:45.300Z,5.90
2022-11-24T12:17:22.944Z,4.50
2022-11-24T12:20:08.825Z,7.60
2022-11-24T12:22:45.530Z,7.17
2022-11-24T12:25:27.095Z,5.27
2022-11-24T12:28:07.122Z,4.23
2022-11-24T12:30:44.707Z,6.43
2022-11-24T12:33:37.139Z,5.13
2022-11-24T12:36:14.827Z,6.23
2022-11-24T12:38:56.036Z,5.07
2022-11-24T12:41:42.150Z,7.93
2022-11-24T12:44:23.152Z,4.30
2022-11-24T12:47:00.626Z,8.00
2022-11-24T12:49:35.535Z,6.03
2022-11-24T12:52:13.709Z,5.27
2022-11-24T12:54:42.938Z,5.50
2022-11-24T12:57:17.779Z,8.07
2022-11-24T12:59:55.914Z,5.73
2022-11-24T13:02:38.089Z,5.33
2022-11-24T13:05:20.844Z,6.07
2022-11-24T13:07:56.133Z,7.70
2022-11-24T13:13:31.405Z,11.83
2022-11-24T13:16:35.223Z,12.60
2022-11-24T13:19:08.618Z,10.40
2022-11-24T13:21:58.979Z,9.80
2022-11-24T13:24:30.927Z,10.13
2022-11-24T13:27:29.243Z,13.63
2022-11-24T13:29:57.434Z,16.27
2022-11-24T13:33:01.767Z,12.30
2022-11-24T13:35:30.601Z,21.27
2022-11-24T13:37:58.929Z,28.10
2022-11-24T13:41:06.344Z,22.93
2022-11-24T13:43:33.083Z,54.73
2022-11-24T13:46:03.843Z,36.03
2022-11-24T13:48:53.809Z,56.50
2022-11-24T13:51:25.648Z,54.70
2022-11-24T13:53:56.193Z,28.50
2022-11-24T13:56:29.506Z,19.90
2022-11-24T13:58:59.706Z,14.23
2022-11-24T14:01:29.522Z,14.93
2022-11-24T14:04:29.862Z,12.17
2022-11-24T14:07:07.744Z,28.67
2022-11-24T14:09:41.835Z,17.40
2022-11-24T14:12:15.527Z,12.13
2022-11-24T14:14:45.595Z,14.13
2022-11-24T14:17:19.751Z,14.80
2022-11-24T14:19:49.722Z,14.50
2022-11-24T14:22:20.947Z,16.80
2022-11-24T14:24:54.777Z,33.13
2022-11-24T14:27:29.939Z,31.50
2022-11-24T14:29:59.733Z,19.40
2022-11-24T14:32:30.766Z,13.53
2022-11-24T14:34:58.804Z,15.60
2022-11-24T14:37:26.803Z,18.53
2022-11-24T14:39:54.819Z,21.43
2022-11-24T14:42:26.097Z,13.50
2022-11-24T14:44:56.656Z,30.97
2022-11-24T14:47:31.373Z,33.77
2022-11-24T14:50:11.243Z,13.97
2022-11-24T14:52:46.121Z,18.10
2022-11-24T14:55:27.783Z,13.20
2022-11-24T14:57:57.892Z,11.10
2022-11-24T15:00:31.605Z,7.33
2022-11-24T15:03:16.553Z,10.83
2022-11-24T15:06:03.139Z,13.73
2022-11-24T15:08:39.498Z,13.53
2022-11-24T15:11:08.647Z,12.43
2022-11-24T15:13:39.229Z,14.33
2022-11-24T15:16:16.354Z,20.37
2022-11-24T15:18:47.300Z,20.57
2022-11-24T15:21:19.482Z,12.03
2022-11-24T15:24:15.647Z,10.67
2022-11-24T15:26:47.142Z,10.87
2022-11-24T15:29:16.517Z,12.77
2022-11-24T15:31:49.385Z,10.33
2022-11-24T15:34:20.559Z,14.13
2022-11-24T15:36:48.634Z,13.10
2022-11-24T15:39:17.503Z,13.40
2022-11-24T15:41:45.518Z,18.67
2022-11-24T15:44:13.437Z,15.87
2022-11-24T15:46:43.086Z,10.30
2022-11-24T15:49:11.321Z,12.90
2022-11-24T15:51:43.707Z,11.23
2022-11-24T15:54:15.852Z,11.90
2022-11-24T15:56:47.093Z,9.97
2022-11-24T15:59:20.196Z,8.83
2022-11-24T16:01:51.288Z,11.63
2022-11-24T16:04:19.299Z,15.77
2022-11-24T16:06:48.027Z,11.43
2022-11-24T16:09:17.349Z,7.10
2022-11-24T16:11:45.716Z,7.73
2022-11-24T16:14:13.760Z,7.60
2022-11-24T16:16:42.014Z,7.47
2022-11-24T16:19:12.308Z,8.43
2022-11-24T16:21:40.289Z,13.20
2022-11-24T16:24:08.948Z,10.73
2022-11-24T16:26:36.846Z,12.00
2022-11-24T16:29:04.763Z,8.63
2022-11-24T16:31:36.632Z,8.63
2022-11-24T16:34:05.815Z,10.37
2022-11-24T16:36:35.251Z,10.13
2022-11-24T16:39:03.211Z,9.80
2022-11-24T16:41:31.460Z,10.17
2022-11-24T16:44:20.348Z,8.70
2022-11-24T16:47:08.877Z,9.57
2022-11-24T16:49:57.211Z,8.63
2022-11-24T16:52:36.533Z,10.23
2022-11-24T16:55:08.393Z,11.10
2022-11-24T16:57:37.131Z,11.90
2022-11-24T17:00:06.054Z,11.57
2022-11-24T17:02:34.391Z,8.23
2022-11-24T17:05:02.456Z,10.53
2022-11-24T17:07:30.719Z,13.53
2022-11-24T17:10:00.705Z,10.47
2022-11-24T17:12:29.021Z,12.13
2022-11-24T17:15:30.351Z,11.87
2022-11-24T17:18:16.071Z,13.63
2022-11-24T17:20:36.135Z,15.50
2022-11-24T17:23:04.166Z,18.37
2022-11-24T17:25:34.633Z,20.23
2022-11-24T17:28:02.568Z,14.83
2022-11-24T17:30:33.012Z,17.33
2022-11-24T17:33:00.922Z,13.07
2022-11-24T17:35:28.818Z,12.33
2022-11-24T17:37:58.297Z,13.67
2022-11-24T17:40:28.830Z,10.40
2022-11-24T17:43:00.913Z,14.13
2022-11-24T17:45:29.803Z,15.80
2022-11-24T17:47:58.068Z,23.87
2022-11-24T17:50:26.674Z,17.33
2022-11-24T17:52:54.903Z,15.53
2022-11-24T17:55:23.102Z,12.60
2022-11-24T17:57:51.629Z,13.27
2022-11-24T18:00:21.573Z,14.23
2022-11-24T18:02:49.599Z,13.27
2022-11-24T18:05:17.679Z,10.63
2022-11-24T18:07:45.627Z,13.10
2022-11-24T18:10:13.688Z,25.40
2022-11-24T18:12:41.630Z,32.63
2022-11-24T18:15:10.312Z,15.00
2022-11-24T18:17:39.835Z,37.77
2022-11-24T18:20:09.267Z,21.20
2022-11-24T18:23:03.976Z,15.00
2022-11-24T18:25:25.290Z,24.07
2022-11-24T18:27:53.350Z,10.83
2022-11-24T18:30:21.729Z,16.43
2022-11-24T18:32:51.164Z,10.17
2022-11-24T18:35:19.507Z,13.10
2022-11-24T18:37:47.452Z,33.17
2022-11-24T18:40:15.737Z,14.93
2022-11-24T18:42:43.793Z,12.83
2022-11-24T18:45:12.687Z,10.40
2022-11-24T18:47:40.811Z,9.57
2022-11-24T18:50:11.232Z,13.27
2022-11-24T18:52:39.414Z,15.37
2022-11-24T18:55:08.150Z,12.00
2022-11-24T18:57:36.139Z,51.50
2022-11-24T19:00:08.627Z,30.57
2022-11-24T19:02:36.645Z,31.33
2022-11-24T19:05:07.057Z,19.17
2022-11-24T19:07:36.436Z,14.77
2022-11-24T19:10:04.657Z,36.67
2022-11-24T19:12:42.357Z,39.60
2022-11-24T19:15:11.014Z,37.90
2022-11-24T19:17:39.330Z,38.17
2022-11-24T19:20:08.614Z,30.57
2022-11-24T19:22:37.956Z,29.90
2022-11-24T19:25:06.952Z,12.70
2022-11-24T19:27:35.174Z,47.23
2022-11-24T19:30:03.081Z,35.77
2022-11-24T19:32:32.657Z,20.87
2022-11-24T19:35:00.716Z,15.20
2022-11-24T19:37:29.442Z,49.80
2022-11-24T19:40:01.238Z,53.93
2022-11-24T19:42:29.165Z,40.80
2022-11-24T19:44:57.681Z,22.53
2022-11-24T19:47:45.963Z,20.50
2022-11-24T19:50:34.291Z,26.47
2022-11-24T19:53:22.550Z,19.07
2022-11-24T19:56:14.793Z,16.80
2022-11-24T19:59:02.155Z,16.53
2022-11-24T20:01:50.665Z,17.40
2022-11-24T20:04:41.376Z,15.50
2022-11-24T20:07:29.992Z,18.83
2022-11-24T20:10:06.028Z,15.97
2022-11-24T20:12:36.986Z,14.63
2022-11-24T20:15:05.646Z,15.00
2022-11-24T20:17:33.671Z,11.97
2022-11-24T20:20:01.626Z,13.33
2022-11-24T20:22:49.927Z,27.97
2022-11-24T20:25:39.178Z,40.40
2022-11-24T20:28:28.791Z,55.73
2022-11-24T20:31:19.351Z,134.37
2022-11-24T20:34:08.587Z,208.83
2022-11-24T20:36:57.012Z,17.97
2022-11-24T20:39:45.464Z,30.83
2022-11-24T20:42:35.747Z,11.93
2022-11-24T20:45:25.444Z,13.93
2022-11-24T20:48:13.893Z,10.50
2022-11-24T20:51:06.398Z,12.13
2022-11-24T20:53:57.112Z,12.70
2022-11-24T20:56:46.542Z,9.70
2022-11-24T20:59:35.870Z,13.37
2022-11-24T21:02:06.853Z,9.30
2022-11-24T21:04:36.430Z,12.40
2022-11-24T21:07:04.702Z,9.70
2022-11-24T21:09:35.868Z,10.17
2022-11-24T21:12:07.204Z,11.57
2022-11-24T21:14:38.392Z,19.40
2022-11-24T21:17:08.091Z,17.03
2022-11-24T21:19:36.288Z,12.30
2022-11-24T21:22:22.747Z,16.73
2022-11-24T21:25:10.995Z,17.13
2022-11-24T21:27:59.440Z,35.63
2022-11-24T21:30:47.787Z,41.10
2022-11-24T21:33:20.768Z,17.60
2022-11-24T21:35:48.712Z,24.70
2022-11-24T21:38:19.503Z,69.63
2022-11-24T21:40:50.199Z,79.43
2022-11-24T21:43:21.396Z,18.47
2022-11-24T21:45:50.592Z,18.53
2022-11-24T21:48:20.056Z,19.47
2022-11-24T21:50:47.991Z,24.30
2022-11-24T21:53:18.277Z,54.17
2022-11-24T21:55:55.367Z,76.27
2022-11-24T21:58:23.559Z,31.37
2022-11-24T22:00:51.809Z,30.37
2022-11-24T22:03:22.136Z,20.93
2022-11-24T22:05:55.394Z,39.00
2022-11-24T22:08:23.943Z,23.10
2022-11-24T22:10:52.626Z,23.73
2022-11-24T22:13:21.215Z,30.03
2022-11-24T22:15:49.170Z,20.80
2022-11-24T22:18:17.632Z,34.87
2022-11-24T22:20:55.366Z,49.13
2022-11-24T22:23:23.986Z,59.90
2022-11-24T22:26:06.294Z,166.73
2022-11-24T22:28:35.640Z,132.43
2022-11-24T22:31:06.964Z,43.70
2022-11-24T22:33:35.554Z,41.03
2022-11-24T22:36:11.709Z,127.13
2022-11-24T22:38:40.162Z,113.40
2022-11-24T22:41:10.663Z,49.57
2022-11-24T22:43:40.073Z,631.70
2022-11-24T22:46:11.022Z,393.47
2022-11-24T22:48:39.795Z,444.40
2022-11-24T22:51:11.507Z,631.17
2022-11-24T22:53:39.982Z,429.87
2022-11-24T22:56:10.576Z,93.23
2022-11-24T22:58:39.319Z,75.93
2022-11-24T23:01:08.250Z,68.43
2022-11-24T23:03:37.166Z,79.90
2022-11-24T23:06:08.428Z,34.57
2022-11-24T23:08:38.115Z,69.53
2022-11-24T23:11:08.908Z,76.17
2022-11-24T23:13:37.493Z,54.57
2022-11-24T23:16:09.354Z,72.00
2022-11-24T23:18:40.731Z,91.13
2022-11-24T23:21:11.824Z,47.30
2022-11-24T23:23:44.433Z,159.43
2022-11-24T23:26:14.387Z,52.30
2022-11-24T23:28:43.186Z,31.67
2022-11-24T23:31:13.884Z,28.20
2022-11-24T23:33:42.606Z,75.53
2022-11-24T23:36:13.065Z,27.53
2022-11-24T23:38:41.617Z,22.80
2022-11-24T23:41:15.216Z,18.93
2022-11-24T23:43:44.307Z,16.77
2022-11-24T23:46:16.465Z,22.80
2022-11-24T23:48:45.309Z,36.13
2022-11-24T23:51:16.452Z,61.10
2022-11-24T23:53:46.844Z,28.07
2022-11-24T23:56:36.586Z,27.37
2022-11-24T23:59:24.996Z,21.50
